createdAt,value
2022-10-25T00:02:45.303Z,24.78
2022-10-25T00:12:50.935Z,24.75
2022-10-25T00:22:56.458Z,24.78
2022-10-25T00:33:01.860Z,24.75
2022-10-25T00:43:07.416Z,24.73
2022-10-25T00:53:12.899Z,24.69
2022-10-25T01:03:18.598Z,24.67
2022-10-25T01:13:24.283Z,24.72
2022-10-25T01:23:29.471Z,24.70
2022-10-25T01:33:34.761Z,24.67
2022-10-25T01:43:40.038Z,24.63
2022-10-25T01:53:45.253Z,24.64
2022-10-25T02:03:50.783Z,24.61
2022-10-25T02:13:55.812Z,24.61
2022-10-25T02:24:02.539Z,24.59
2022-10-25T02:34:07.785Z,24.58
2022-10-25T02:44:13.330Z,24.59
2022-10-25T02:54:18.375Z,24.57
2022-10-25T03:04:24.254Z,24.56
2022-10-25T03:14:29.742Z,24.56
2022-10-25T03:24:35.284Z,24.56
2022-10-25T03:34:40.472Z,24.58
2022-10-25T03:44:48.389Z,24.55
2022-10-25T03:54:53.774Z,24.53
2022-10-25T04:04:59.842Z,24.51
2022-10-25T04:15:05.026Z,24.54
2022-10-25T04:25:10.251Z,24.50
2022-10-25T04:35:15.453Z,24.50
2022-10-25T04:45:20.544Z,24.49
2022-10-25T04:55:25.658Z,24.53
2022-10-25T05:05:30.939Z,24.50
2022-10-25T05:15:36.199Z,24.45
2022-10-25T05:25:41.715Z,24.47
2022-10-25T05:35:46.938Z,24.48
2022-10-25T05:45:52.224Z,24.47
2022-10-25T05:55:57.539Z,24.47
2022-10-25T06:06:02.587Z,24.44
2022-10-25T06:16:08.199Z,24.41
2022-10-25T06:26:13.706Z,24.44
2022-10-25T06:37:38.685Z,24.46
2022-10-25T06:47:43.463Z,24.47
2022-10-25T06:57:49.504Z,24.44
2022-10-25T07:07:54.955Z,24.58
2022-10-25T07:18:00.360Z,24.64
2022-10-25T07:28:05.929Z,24.68
2022-10-25T07:38:11.318Z,24.67
2022-10-25T07:48:16.639Z,24.69
2022-10-25T07:58:22.102Z,24.73
2022-10-25T08:08:28.679Z,24.60
2022-10-25T08:18:34.511Z,24.59
2022-10-25T08:28:39.591Z,24.57
2022-10-25T08:38:45.550Z,24.53
2022-10-25T08:48:50.836Z,24.51
2022-10-25T08:58:56.099Z,24.51
2022-10-25T09:09:01.686Z,24.48
2022-10-25T09:19:07.105Z,24.48
2022-10-25T09:29:12.225Z,24.50
2022-10-25T09:39:17.242Z,24.49
2022-10-25T09:49:22.674Z,24.46
2022-10-25T09:59:28.311Z,24.44
2022-10-25T10:09:33.741Z,24.46
2022-10-25T10:19:39.308Z,24.44
2022-10-25T10:29:44.795Z,24.43
2022-10-25T10:39:50.171Z,24.42
2022-10-25T10:49:55.793Z,24.41
2022-10-25T11:00:01.175Z,24.43
2022-10-25T11:10:07.090Z,24.44
2022-10-25T11:20:12.430Z,24.44
2022-10-25T11:30:17.913Z,24.44
2022-10-25T11:40:23.442Z,24.47
2022-10-25T11:50:28.730Z,24.48
2022-10-25T12:00:34.519Z,24.48
2022-10-25T12:10:40.248Z,24.46
2022-10-25T12:20:46.165Z,24.47
2022-10-25T12:30:51.831Z,24.45
2022-10-25T12:40:57.663Z,24.44
2022-10-25T12:51:03.056Z,24.43
2022-10-25T13:01:08.737Z,24.41
2022-10-25T13:11:14.133Z,24.42
2022-10-25T13:21:19.703Z,24.42
2022-10-25T13:31:25.401Z,24.41
2022-10-25T13:41:30.666Z,24.40
2022-10-25T13:51:36.245Z,24.39
2022-10-25T14:01:41.609Z,24.38
2022-10-25T14:11:49.949Z,24.39
2022-10-25T14:21:56.934Z,24.37
2022-10-25T14:32:01.897Z,24.35
2022-10-25T14:42:07.597Z,24.36
2022-10-25T14:52:12.748Z,24.37
2022-10-25T15:03:37.963Z,24.34
2022-10-25T15:13:43.078Z,24.34
2022-10-25T15:23:48.532Z,24.33
2022-10-25T15:33:53.455Z,24.30
2022-10-25T15:43:59.358Z,24.35
2022-10-25T15:54:05.043Z,24.35
2022-10-25T16:04:10.486Z,24.48
2022-10-25T16:14:15.781Z,24.50
2022-10-25T16:24:21.683Z,24.47
2022-10-25T16:34:28.704Z,24.57
2022-10-25T16:44:33.828Z,24.66
2022-10-25T16:55:59.091Z,24.60
2022-10-25T17:06:16.128Z,24.64
2022-10-25T17:16:13.883Z,24.62
2022-10-25T17:26:19.349Z,24.74
2022-10-25T17:36:25.077Z,24.75
2022-10-25T17:46:30.445Z,24.73
2022-10-25T17:56:36.108Z,24.75
2022-10-25T18:06:41.486Z,24.77
2022-10-25T18:16:46.572Z,24.73
2022-10-25T18:26:51.978Z,24.72
2022-10-25T18:36:57.546Z,24.78
2022-10-25T18:47:03.449Z,24.80
2022-10-25T18:57:09.653Z,24.86
2022-10-25T19:08:34.353Z,24.77
2022-10-25T19:18:38.917Z,24.78
2022-10-25T19:28:44.440Z,24.90
2022-10-25T19:38:49.704Z,24.87
2022-10-25T19:48:55.209Z,24.95
2022-10-25T19:59:00.485Z,24.87
2022-10-25T20:09:05.532Z,24.92
2022-10-25T20:19:10.942Z,25.02
2022-10-25T20:29:20.092Z,25.05
2022-10-25T20:39:26.502Z,25.16
2022-10-25T20:49:31.819Z,25.16
2022-10-25T20:59:37.167Z,25.15
2022-10-25T21:09:45.782Z,25.14
2022-10-25T21:19:52.271Z,25.13
2022-10-25T21:29:57.651Z,25.19
2022-10-25T21:40:02.960Z,25.14
2022-10-25T21:50:08.270Z,25.09
2022-10-25T22:00:13.192Z,25.05
2022-10-25T22:10:18.526Z,24.98
2022-10-25T22:20:23.902Z,24.94
2022-10-25T22:30:29.075Z,24.89
2022-10-25T22:40:34.324Z,24.87
2022-10-25T22:50:39.621Z,24.80
2022-10-25T23:00:44.580Z,24.79
2022-10-25T23:10:49.736Z,24.75
2022-10-25T23:20:54.826Z,24.76
2022-10-25T23:31:00.469Z,24.72
2022-10-25T23:41:05.818Z,24.75
2022-10-25T23:51:11.688Z,24.71
